Time;durP1;ratioP1;P1;durP2;ratioP2;P2;SDS_P1;SDS_P2;PMS_P1;PMS_P2;Temp;Humidity;BMP_temperature;BMP_pressure;BME280_temperature;BME280_humidity;BME280_pressure;Samples;Min_cycle;Max_cycle;Signal;HPM_P1;HPM_P2
2021/01/28 00:00:21;;;;;;;0.20;0.10;;;;;;;3.76;100.00;99961.16;4974655;28;20457;-50
2021/01/28 00:02:47;;;;;;;0.20;0.10;;;;;;;3.66;100.00;99955.09;4987483;28;20481;-49
2021/01/28 00:05:14;;;;;;;0.20;0.10;;;;;;;3.65;100.00;99945.47;4982142;28;20476;-50
2021/01/28 00:07:40;;;;;;;0.20;0.10;;;;;;;3.72;100.00;99946.31;4979860;28;20462;-50
2021/01/28 00:10:07;;;;;;;0.20;0.10;;;;;;;3.78;100.00;99947.13;4984720;28;20936;-49
2021/01/28 00:12:33;;;;;;;0.20;0.10;;;;;;;3.81;100.00;99948.84;4986230;28;20453;-50
2021/01/28 00:15:00;;;;;;;0.20;0.20;;;;;;;3.80;100.00;99936.59;4981613;28;20469;-49
2021/01/28 00:17:26;;;;;;;0.20;0.20;;;;;;;3.86;100.00;99931.31;4979467;28;20451;-49
2021/01/28 00:19:52;;;;;;;0.20;0.10;;;;;;;3.84;100.00;99930.47;4984634;28;21002;-49
2021/01/28 00:22:18;;;;;;;0.20;0.10;;;;;;;3.88;100.00;99937.44;4986040;28;20493;-50
2021/01/28 00:24:44;;;;;;;0.20;0.10;;;;;;;3.92;100.00;99917.25;4985490;28;20477;-50
2021/01/28 00:27:11;;;;;;;0.20;0.10;;;;;;;4.21;100.00;99907.34;4983640;28;20868;-50
2021/01/28 00:29:37;;;;;;;0.20;0.10;;;;;;;4.14;100.00;99903.91;4988220;28;20454;-50
2021/01/28 00:32:05;;;;;;;0.20;0.10;;;;;;;4.10;100.00;99903.94;4989833;28;20449;-50
2021/01/28 00:34:32;;;;;;;0.20;0.10;;;;;;;4.32;100.00;99902.88;4985842;28;20472;-50
2021/01/28 00:36:59;;;;;;;0.20;0.10;;;;;;;4.20;100.00;99902.09;4983362;28;20516;-49
2021/01/28 00:39:25;;;;;;;0.20;0.17;;;;;;;4.20;100.00;99908.22;4987439;28;20508;-49
2021/01/28 00:41:51;;;;;;;0.20;0.10;;;;;;;4.16;100.00;99903.91;4989584;28;20969;-50
2021/01/28 00:44:17;;;;;;;0.20;0.10;;;;;;;4.11;100.00;99909.22;4985652;28;20496;-49
2021/01/28 00:46:43;;;;;;;0.87;0.87;;;;;;;4.07;100.00;99907.47;4982997;28;20940;-50
2021/01/28 00:49:10;;;;;;;0.20;0.10;;;;;;;4.11;100.00;99913.56;4987141;28;20454;-50
2021/01/28 00:51:36;;;;;;;0.20;0.10;;;;;;;4.14;100.00;99909.16;4989800;28;20458;-49
2021/01/28 00:54:03;;;;;;;0.20;0.10;;;;;;;4.07;100.00;99907.47;4985447;28;20596;-49
2021/01/28 00:56:29;;;;;;;0.20;0.10;;;;;;;4.07;100.00;99909.22;4983364;28;20484;-49
2021/01/28 00:58:55;;;;;;;0.20;0.10;;;;;;;4.06;100.00;99912.75;4986741;28;20454;-50
2021/01/28 01:01:21;;;;;;;0.20;0.10;;;;;;;4.08;100.00;99903.94;4990306;28;20464;-50
2021/01/28 01:03:47;;;;;;;0.20;0.10;;;;;;;4.18;100.00;99907.38;4985885;28;20999;-50
2021/01/28 01:06:14;;;;;;;0.20;0.10;;;;;;;4.19;100.00;99910.88;4989284;28;20947;-49
2021/01/28 01:08:40;;;;;;;0.20;0.13;;;;;;;4.15;100.00;99907.41;4986071;28;20499;-50
2021/01/28 01:11:09;;;;;;;0.20;0.10;;;;;;;4.13;100.00;99901.31;4982797;28;20965;-50
2021/01/28 01:13:38;;;;;;;0.20;0.10;;;;;;;4.18;100.00;99899.50;4985834;28;20454;-50
2021/01/28 01:16:06;;;;;;;0.20;0.10;;;;;;;4.23;100.00;99899.44;4989710;28;21043;-51
2021/01/28 01:18:34;;;;;;;0.70;0.70;;;;;;;4.27;100.00;99894.16;4987254;28;20449;-50
2021/01/28 01:21:04;;;;;;;0.20;0.10;;;;;;;4.24;100.00;99886.25;4982347;28;20453;-50
2021/01/28 01:23:31;;;;;;;0.20;0.10;;;;;;;4.22;100.00;99879.28;4983942;28;20494;-49
2021/01/28 01:25:58;;;;;;;0.30;0.20;;;;;;;4.23;100.00;99863.47;4989088;28;20505;-49
2021/01/28 01:28:26;;;;;;;0.20;0.10;;;;;;;4.27;100.00;99864.34;4987882;28;20461;-50
2021/01/28 01:30:53;;;;;;;0.20;0.10;;;;;;;4.33;100.00;99854.63;4981898;28;20946;-49
2021/01/28 01:33:20;;;;;;;0.20;0.10;;;;;;;4.32;100.00;99852.88;4983050;28;20447;-50
2021/01/28 01:35:46;;;;;;;0.30;0.20;;;;;;;4.31;100.00;99847.63;4971892;28;20525;-50
2021/01/28 01:38:13;;;;;;;0.20;0.10;;;;;;;4.20;100.00;99845.09;4988114;28;20453;-50
2021/01/28 01:40:43;;;;;;;0.20;0.10;;;;;;;4.23;100.00;99844.19;4982092;28;20452;-51
2021/01/28 01:43:15;;;;;;;0.20;0.10;;;;;;;4.30;100.00;99845.91;4969833;28;20498;-50
2021/01/28 01:45:44;;;;;;;0.20;0.10;;;;;;;4.34;100.00;99837.94;4982947;28;20845;-50
2021/01/28 01:48:27;;;;;;;0.20;0.10;;;;;;;4.39;100.00;99832.66;4982503;28;20878;-50
2021/01/28 01:51:04;;;;;;;0.20;0.10;;;;;;;4.40;100.00;99832.63;4985399;28;20928;-50
2021/01/28 01:53:37;;;;;;;0.20;0.10;;;;;;;4.36;100.00;99825.63;4988424;28;20454;-50
2021/01/28 01:56:16;;;;;;;0.20;0.10;;;;;;;4.37;100.00;99822.13;4975864;28;20501;-49
2021/01/28 01:58:48;;;;;;;0.20;0.10;;;;;;;4.45;100.00;99814.16;4971934;28;20977;-50
2021/01/28 02:01:18;;;;;;;0.20;0.10;;;;;;;4.39;100.00;99816.88;4981793;28;20462;-50
2021/01/28 02:03:45;;;;;;;0.20;0.20;;;;;;;4.35;100.00;99810.75;4985200;28;20530;-50
2021/01/28 02:06:41;;;;;;;0.30;0.20;;;;;;;4.50;100.00;99803.56;4988520;28;20509;-50
2021/01/28 02:09:09;;;;;;;0.20;0.10;;;;;;;4.42;100.00;99803.66;4988194;28;20966;-51
2021/01/28 02:11:38;;;;;;;0.20;0.10;;;;;;;4.46;100.00;99808.00;4983382;28;20525;-50
2021/01/28 02:14:07;;;;;;;0.20;0.10;;;;;;;4.35;100.00;99800.22;4981698;28;20470;-49
2021/01/28 02:16:37;;;;;;;0.20;0.10;;;;;;;4.44;100.00;99801.88;4986210;28;20505;-50
2021/01/28 02:19:34;;;;;;;0.20;0.20;;;;;;;4.22;100.00;99795.97;4988632;28;20504;-50
2021/01/28 02:22:01;;;;;;;0.20;0.10;;;;;;;4.27;100.00;99794.19;4988730;28;20856;-51
2021/01/28 02:24:45;;;;;;;0.20;0.13;;;;;;;4.28;100.00;99782.78;4987911;28;20565;-50
2021/01/28 02:27:13;;;;;;;0.20;0.10;;;;;;;4.36;100.00;99790.56;4977306;28;20859;-50
2021/01/28 02:29:39;;;;;;;0.20;0.10;;;;;;;4.39;100.00;99780.03;4976815;28;20522;-50
2021/01/28 02:32:06;;;;;;;0.20;0.10;;;;;;;4.43;100.00;99772.06;4983923;28;20446;-50
2021/01/28 02:34:33;;;;;;;0.20;0.10;;;;;;;4.46;100.00;99773.78;4983868;28;20872;-50
2021/01/28 02:36:59;;;;;;;0.20;0.10;;;;;;;4.46;100.00;99766.75;4980971;28;20508;-50
2021/01/28 02:39:28;;;;;;;0.20;0.10;;;;;;;4.43;100.00;99756.28;4984966;28;20479;-50
2021/01/28 02:42:00;;;;;;;0.20;0.10;;;;;;;4.47;100.00;99757.97;4987630;28;20458;-49
2021/01/28 02:44:26;;;;;;;0.20;0.20;;;;;;;4.56;100.00;99762.25;4984658;28;21057;-50
2021/01/28 02:46:53;;;;;;;0.30;0.10;;;;;;;4.47;100.00;99762.38;4980252;28;20457;-50
2021/01/28 02:49:19;;;;;;;0.20;0.10;;;;;;;4.32;100.00;99750.28;4983480;28;20465;-50
2021/01/28 02:51:45;;;;;;;0.20;0.10;;;;;;;4.31;100.00;99748.53;4987778;28;20833;-50
2021/01/28 02:54:12;;;;;;;0.20;0.20;;;;;;;4.40;100.00;99745.81;4985451;28;20469;-50
2021/01/28 02:56:38;;;;;;;0.20;0.10;;;;;;;4.38;100.00;99739.66;4963554;28;20453;-50
2021/01/28 02:59:06;;;;;;;0.20;0.20;;;;;;;4.36;100.00;99730.94;4983375;28;20458;-50
2021/01/28 03:01:36;;;;;;;0.20;0.10;;;;;;;4.31;100.00;99722.22;4989103;28;20465;-50
2021/01/28 03:04:03;;;;;;;0.20;0.10;;;;;;;4.35;100.00;99720.44;4982443;28;20494;-50
2021/01/28 03:06:29;;;;;;;0.20;0.10;;;;;;;4.29;100.00;99705.59;4987477;28;20918;-50
2021/01/28 03:08:55;;;;;;;0.20;0.10;;;;;;;4.42;100.00;99706.31;4974408;28;20509;-50
2021/01/28 03:11:21;;;;;;;0.20;0.10;;;;;;;4.53;100.00;99688.63;4987342;28;20465;-50
2021/01/28 03:13:47;;;;;;;0.20;0.20;;;;;;;4.46;100.00;99681.69;4985586;28;20877;-50
2021/01/28 03:16:14;;;;;;;0.20;0.10;;;;;;;4.47;100.00;99678.16;4980551;28;20453;-50
2021/01/28 03:18:40;;;;;;;0.20;0.20;;;;;;;4.43;100.00;99668.59;4982237;28;20490;-50
2021/01/28 03:21:06;;;;;;;0.20;0.10;;;;;;;4.31;100.00;99666.13;4987580;28;20450;-50
2021/01/28 03:23:32;;;;;;;0.20;0.20;;;;;;;4.32;100.00;99660.84;4968609;28;20489;-50
2021/01/28 03:25:59;;;;;;;0.20;0.10;;;;;;;4.33;100.00;99653.81;4977892;28;20529;-49
2021/01/28 03:28:25;;;;;;;0.20;0.10;;;;;;;4.32;100.00;99650.31;4974091;28;20458;-50
2021/01/28 03:30:51;;;;;;;0.20;0.20;;;;;;;4.30;100.00;99661.75;4986896;28;20944;-49
2021/01/28 03:33:20;;;;;;;0.40;0.40;;;;;;;4.31;100.00;99660.84;4985062;28;20450;-49
2021/01/28 03:35:49;;;;;;;0.20;0.10;;;;;;;4.36;100.00;99665.16;4980047;28;20453;-50
2021/01/28 03:38:16;;;;;;;0.20;0.10;;;;;;;4.34;100.00;99660.81;4981063;28;20520;-50
2021/01/28 03:40:43;;;;;;;0.20;0.10;;;;;;;4.60;100.00;99652.56;4986614;28;20459;-51
2021/01/28 03:43:10;;;;;;;0.20;0.10;;;;;;;4.54;100.00;99661.41;4986659;28;20493;-51
2021/01/28 03:45:37;;;;;;;0.20;0.10;;;;;;;4.40;100.00;99661.63;4979268;28;20481;-51
2021/01/28 03:48:04;;;;;;;0.20;0.10;;;;;;;4.35;100.00;99645.00;4980016;28;20524;-52
2021/01/28 03:50:34;;;;;;;0.20;0.10;;;;;;;4.33;100.00;99633.63;4967570;28;20484;-51
2021/01/28 03:53:01;;;;;;;0.20;0.20;;;;;;;4.33;100.00;99628.38;4979692;28;20897;-50
2021/01/28 03:55:28;;;;;;;0.20;0.10;;;;;;;4.33;100.00;99625.75;4985031;28;20525;-50
2021/01/28 03:57:55;;;;;;;0.20;0.10;;;;;;;4.32;100.00;99616.13;4973723;28;20959;-51
2021/01/28 04:00:30;;;;;;;0.20;0.10;;;;;;;4.32;100.00;99608.22;4984791;28;20450;-50
2021/01/28 04:03:01;;;;;;;0.20;0.20;;;;;;;4.29;100.00;99613.53;4986068;28;20490;-51
2021/01/28 04:05:28;;;;;;;0.20;0.10;;;;;;;4.29;100.00;99605.66;4983079;28;20477;-51
2021/01/28 04:07:54;;;;;;;0.20;0.10;;;;;;;4.30;100.00;99596.84;4979616;28;20454;-50
2021/01/28 04:10:31;;;;;;;0.20;0.10;;;;;;;4.35;100.00;99587.13;4983273;28;20458;-50
2021/01/28 04:12:57;;;;;;;0.20;0.10;;;;;;;4.36;100.00;99580.97;4986668;28;20449;-50
2021/01/28 04:15:24;;;;;;;0.20;0.10;;;;;;;4.34;100.00;99566.09;4984426;28;20473;-50
2021/01/28 04:17:51;;;;;;;0.20;0.10;;;;;;;4.31;100.00;99566.16;4979610;28;20826;-50
2021/01/28 04:20:19;;;;;;;0.20;0.10;;;;;;;4.33;100.00;99557.34;4982475;28;20553;-51
2021/01/28 04:22:46;;;;;;;0.20;0.10;;;;;;;4.26;100.00;99553.09;4987131;28;20490;-50
2021/01/28 04:25:14;;;;;;;1.50;1.50;;;;;;;4.19;100.00;99543.53;4985258;28;20469;-50
2021/01/28 04:27:40;;;;;;;0.20;0.10;;;;;;;4.28;100.00;99545.16;4979945;28;20943;-50
2021/01/28 04:30:10;;;;;;;0.20;0.10;;;;;;;4.30;100.00;99533.72;4980772;28;20528;-50
2021/01/28 04:32:37;;;;;;;0.20;0.10;;;;;;;4.24;100.00;99543.44;4986435;28;20501;-50
2021/01/28 04:35:05;;;;;;;0.20;0.10;;;;;;;4.40;100.00;99529.19;4985824;28;20501;-50
2021/01/28 04:37:31;;;;;;;0.20;0.10;;;;;;;4.43;100.00;99537.03;4980292;28;20487;-50
2021/01/28 04:39:58;;;;;;;0.20;0.10;;;;;;;4.47;100.00;99529.06;4979363;28;20961;-50
2021/01/28 04:42:41;;;;;;;0.20;0.10;;;;;;;4.31;100.00;99521.44;4973016;28;20455;-50
2021/01/28 04:45:08;;;;;;;0.20;0.10;;;;;;;4.37;100.00;99516.94;4986095;28;20500;-50
2021/01/28 04:47:35;;;;;;;0.20;0.10;;;;;;;4.35;100.00;99521.34;4973535;28;20509;-50
2021/01/28 04:50:04;;;;;;;0.20;0.10;;;;;;;4.41;100.00;99513.38;4983445;28;20540;-50
2021/01/28 04:52:40;;;;;;;0.20;0.10;;;;;;;4.39;100.00;99512.53;4962967;28;20955;-50
2021/01/28 04:55:11;;;;;;;0.20;0.10;;;;;;;4.34;100.00;99509.09;4985341;28;20458;-50
2021/01/28 04:57:37;;;;;;;0.20;0.10;;;;;;;4.34;100.00;99500.34;4985286;28;20445;-50
2021/01/28 05:00:04;;;;;;;0.20;0.10;;;;;;;4.34;100.00;99503.84;4979161;28;20453;-50
2021/01/28 05:02:31;;;;;;;0.20;0.10;;;;;;;4.30;100.00;99499.53;4989298;28;20533;-50
2021/01/28 05:05:03;;;;;;;0.20;0.10;;;;;;;4.29;100.00;99495.16;4986421;28;20474;-50
2021/01/28 05:07:32;;;;;;;0.20;0.10;;;;;;;4.30;100.00;99486.38;4985615;28;20449;-50
2021/01/28 05:10:36;;;;;;;0.20;0.10;;;;;;;4.28;100.00;99485.53;4982937;28;20449;-50
2021/01/28 05:13:05;;;;;;;0.20;0.10;;;;;;;4.31;100.00;99474.09;4989790;28;20851;-50
2021/01/28 05:15:41;;;;;;;0.20;0.10;;;;;;;4.32;100.00;99467.94;4988711;28;20481;-50
2021/01/28 05:18:22;;;;;;;0.20;0.10;;;;;;;4.30;100.00;99462.69;4972818;28;20453;-51
2021/01/28 05:20:50;;;;;;;0.20;0.20;;;;;;;4.19;100.00;99443.59;4992385;28;20450;-50
2021/01/28 05:23:34;;;;;;;0.20;0.10;;;;;;;4.27;100.00;99438.22;4986299;28;20842;-50
2021/01/28 05:26:02;;;;;;;0.20;0.10;;;;;;;4.24;100.00;99439.13;4979555;28;20454;-50
2021/01/28 05:28:28;;;;;;;0.20;0.10;;;;;;;4.21;100.00;99428.66;4988552;28;20943;-50
2021/01/28 05:30:54;;;;;;;0.20;0.10;;;;;;;4.26;100.00;99425.97;4982380;28;20946;-50
2021/01/28 05:33:32;;;;;;;0.20;0.10;;;;;;;4.16;100.00;99420.84;4982657;28;20944;-50
2021/01/28 05:36:21;;;;;;;0.20;0.10;;;;;;;4.20;100.00;99412.91;4971933;28;20460;-50
2021/01/28 05:38:50;;;;;;;0.20;0.10;;;;;;;4.19;100.00;99398.88;4982614;28;20441;-51
2021/01/28 05:41:27;;;;;;;0.20;0.10;;;;;;;4.24;100.00;99396.16;4984574;28;20485;-50
2021/01/28 05:43:54;;;;;;;0.20;0.10;;;;;;;4.17;100.00;99400.69;4981333;28;20496;-50
2021/01/28 05:46:20;;;;;;;0.20;0.10;;;;;;;4.22;100.00;99390.06;4983053;28;20450;-50
2021/01/28 05:49:01;;;;;;;0.20;0.10;;;;;;;4.24;100.00;99383.88;4989059;28;20462;-50
2021/01/28 05:51:55;;;;;;;0.20;0.10;;;;;;;4.29;100.00;99378.56;4988646;28;20544;-50
2021/01/28 05:54:26;;;;;;;0.20;0.10;;;;;;;4.27;100.00;99373.34;4967214;28;20481;-50
2021/01/28 05:57:08;;;;;;;0.20;0.20;;;;;;;4.35;100.00;99368.78;4981520;28;20461;-50
2021/01/28 05:59:52;;;;;;;0.20;0.10;;;;;;;4.40;100.00;99358.19;4981696;28;20454;-50
2021/01/28 06:02:45;;;;;;;0.20;0.10;;;;;;;4.32;100.00;99347.78;4991987;28;20939;-51
2021/01/28 06:05:31;;;;;;;0.20;0.10;;;;;;;4.31;100.00;99351.31;4972441;28;20465;-49
2021/01/28 06:08:09;;;;;;;0.20;0.20;;;;;;;4.33;100.00;99346.91;4977581;28;20880;-50
2021/01/28 06:11:11;;;;;;;0.20;0.10;;;;;;;4.30;100.00;99331.19;4987706;28;20446;-50
2021/01/28 06:13:49;;;;;;;0.20;0.10;;;;;;;4.21;100.00;99338.38;4944798;29;20474;-50
2021/01/28 06:16:25;;;;;;;0.20;0.10;;;;;;;4.07;100.00;99331.59;4978070;28;20453;-50
2021/01/28 06:19:15;;;;;;;0.20;0.10;;;;;;;4.10;100.00;99325.41;4981801;28;20446;-50
2021/01/28 06:21:55;;;;;;;0.30;0.10;;;;;;;4.09;100.00;99313.16;4983354;28;20446;-50
2021/01/28 06:24:21;;;;;;;0.20;0.10;;;;;;;4.01;100.00;99309.81;4988186;28;21062;-50
2021/01/28 06:27:06;;;;;;;0.20;0.10;;;;;;;3.92;100.00;99313.47;4978288;28;20541;-50
2021/01/28 06:29:50;;;;;;;0.20;0.10;;;;;;;3.88;100.00;99298.66;4963938;28;20450;-50
2021/01/28 06:32:35;;;;;;;0.20;0.10;;;;;;;3.84;100.00;99297.84;4989811;28;20454;-51
2021/01/28 06:35:34;;;;;;;0.20;0.10;;;;;;;3.89;100.00;99289.88;4990050;28;20480;-50
2021/01/28 06:38:30;;;;;;;0.20;0.10;;;;;;;3.92;100.00;99281.06;4984298;28;20450;-49
2021/01/28 06:41:02;;;;;;;0.20;0.10;;;;;;;3.86;100.00;99275.03;4983401;28;20445;-50
2021/01/28 06:43:42;;;;;;;0.30;0.10;;;;;;;3.94;100.00;99272.25;4978605;28;20593;-50
2021/01/28 06:46:24;;;;;;;0.20;0.10;;;;;;;4.01;100.00;99273.00;4985708;28;20997;-50
2021/01/28 06:48:56;;;;;;;0.20;0.10;;;;;;;4.05;100.00;99266.78;4968034;28;20880;-50
2021/01/28 06:51:45;;;;;;;0.20;0.10;;;;;;;4.08;100.00;99262.34;4981234;28;20450;-50
2021/01/28 06:54:20;;;;;;;0.20;0.10;;;;;;;4.05;100.00;99257.13;4983691;28;20521;-51
2021/01/28 06:57:15;;;;;;;0.20;0.10;;;;;;;4.15;100.00;99260.47;4978370;28;20446;-50
2021/01/28 06:59:59;;;;;;;0.20;0.10;;;;;;;4.13;100.00;99262.25;4938948;28;20450;-50
2021/01/28 07:02:46;;;;;;;0.20;0.10;;;;;;;4.11;100.00;99257.03;4991758;28;20488;-50
2021/01/28 07:05:47;;;;;;;0.20;0.10;;;;;;;4.07;100.00;99246.59;4970964;28;20469;-50
2021/01/28 07:08:29;;;;;;;0.20;0.10;;;;;;;4.12;100.00;99250.00;4974733;28;20513;-50
2021/01/28 07:11:00;;;;;;;0.20;0.10;;;;;;;4.19;100.00;99246.34;4987498;28;20446;-50
2021/01/28 07:13:32;;;;;;;0.20;0.10;;;;;;;4.23;100.00;99234.00;4983505;28;20449;-50
2021/01/28 07:16:18;;;;;;;0.20;0.10;;;;;;;4.14;100.00;99230.69;4980420;28;20846;-50
2021/01/28 07:18:59;;;;;;;0.20;0.10;;;;;;;4.14;100.00;99225.41;4968400;28;20908;-50
2021/01/28 07:21:47;;;;;;;0.20;0.13;;;;;;;4.14;100.00;99220.16;4982794;28;20445;-50
2021/01/28 07:24:19;;;;;;;0.20;0.10;;;;;;;4.19;100.00;99212.16;4976004;28;20494;-50
2021/01/28 07:26:50;;;;;;;0.20;0.10;;;;;;;4.18;100.00;99199.06;4977000;28;21031;-50
2021/01/28 07:29:31;;;;;;;0.20;0.10;;;;;;;4.16;100.00;99212.22;4986795;28;20512;-51
2021/01/28 07:31:58;;;;;;;0.20;0.10;;;;;;;4.28;100.00;99185.69;4986531;28;20519;-50
2021/01/28 07:34:25;;;;;;;0.20;0.10;;;;;;;4.27;100.00;99183.97;4982078;28;20978;-50
2021/01/28 07:36:59;;;;;;;0.20;0.10;;;;;;;4.28;100.00;99176.94;4979966;28;20450;-50
2021/01/28 07:39:28;;;;;;;0.20;0.10;;;;;;;4.28;100.00;99159.38;4983513;28;20818;-51
2021/01/28 07:41:57;;;;;;;0.20;0.10;;;;;;;4.19;100.00;99135.91;4986629;28;20960;-50
2021/01/28 07:44:24;;;;;;;0.20;0.10;;;;;;;4.28;100.00;99153.25;4984477;28;20505;-49
2021/01/28 07:46:52;;;;;;;0.20;0.10;;;;;;;4.30;100.00;99149.69;4979869;28;20868;-50
2021/01/28 07:49:23;;;;;;;0.20;0.10;;;;;;;4.23;100.00;99136.69;4982569;28;20813;-51
2021/01/28 07:51:51;;;;;;;0.20;0.10;;;;;;;4.19;100.00;99135.03;4986403;28;20457;-51
2021/01/28 07:54:23;;;;;;;0.20;0.10;;;;;;;4.20;100.00;99123.63;4985277;28;20477;-50
2021/01/28 07:56:52;;;;;;;0.20;0.10;;;;;;;4.20;100.00;99121.84;4979716;28;20519;-50
2021/01/28 07:59:43;;;;;;;0.20;0.10;;;;;;;4.30;100.00;99107.59;4980475;28;20567;-50
2021/01/28 08:02:13;;;;;;;0.20;0.10;;;;;;;4.32;100.00;99104.94;4975650;28;20457;-50
2021/01/28 08:04:49;;;;;;;0.20;0.20;;;;;;;4.25;100.00;99095.44;4979417;28;20504;-50
2021/01/28 08:07:24;;;;;;;0.20;0.10;;;;;;;4.15;100.00;99085.16;4981578;28;20458;-50
2021/01/28 08:09:56;;;;;;;0.20;0.10;;;;;;;4.39;100.00;99080.25;4986710;28;20439;-50
2021/01/28 08:12:26;;;;;;;0.20;0.10;;;;;;;4.26;100.00;99071.75;4985725;28;20449;-51
2021/01/28 08:14:53;;;;;;;0.20;0.10;;;;;;;4.33;100.00;99064.59;4969460;28;20469;-50
2021/01/28 08:17:25;;;;;;;0.20;0.10;;;;;;;4.17;100.00;99048.28;4979584;28;20455;-50
2021/01/28 08:20:12;;;;;;;0.20;0.10;;;;;;;4.18;100.00;99042.13;4984433;28;20529;-50
2021/01/28 08:22:49;;;;;;;0.20;0.10;;;;;;;4.31;100.00;99040.94;4986650;28;20454;-50
2021/01/28 08:25:15;;;;;;;0.20;0.10;;;;;;;4.43;100.00;99048.56;4986260;28;20515;-51
2021/01/28 08:27:42;;;;;;;0.20;0.10;;;;;;;4.37;100.00;99030.28;4979634;28;20950;-50
2021/01/28 08:30:16;;;;;;;0.20;0.10;;;;;;;4.24;100.00;99033.22;4979879;28;20450;-50
2021/01/28 08:32:46;;;;;;;0.20;0.10;;;;;;;4.36;100.00;99027.69;4984944;28;20443;-50
2021/01/28 08:35:12;;;;;;;0.20;0.10;;;;;;;4.46;100.00;99030.06;4986475;28;20470;-50
2021/01/28 08:37:38;;;;;;;0.20;0.10;;;;;;;4.34;100.00;99018.97;4981594;28;20492;-50
2021/01/28 08:40:12;;;;;;;0.20;0.10;;;;;;;4.43;100.00;99019.63;4979805;28;20466;-50
2021/01/28 08:42:38;;;;;;;0.20;0.10;;;;;;;4.42;100.00;99011.75;4983946;28;20449;-51
2021/01/28 08:45:26;;;;;;;0.20;0.10;;;;;;;4.35;100.00;99004.91;4989849;28;20490;-50
2021/01/28 08:48:10;;;;;;;0.20;0.10;;;;;;;4.40;100.00;99003.06;4989946;28;20450;-51
2021/01/28 08:50:39;;;;;;;0.20;0.10;;;;;;;4.52;100.00;98994.81;4973640;28;20504;-50
2021/01/28 08:53:21;;;;;;;0.20;0.10;;;;;;;4.53;100.00;99000.97;4982940;28;20451;-51
2021/01/28 08:55:48;;;;;;;0.73;0.73;;;;;;;4.67;100.00;98993.59;4985488;28;20443;-51
2021/01/28 08:58:17;;;;;;;0.20;0.10;;;;;;;4.83;100.00;99007.22;4989127;28;20457;-51
2021/01/28 09:00:47;;;;;;;0.33;0.33;;;;;;;4.82;100.00;99005.50;4986769;28;20450;-50
2021/01/28 09:03:19;;;;;;;0.20;0.10;;;;;;;4.82;100.00;99003.72;4989561;28;20494;-50
2021/01/28 09:05:46;;;;;;;0.20;0.10;;;;;;;4.86;100.00;99013.28;4989230;28;20446;-50
2021/01/28 09:08:43;;;;;;;0.20;0.10;;;;;;;4.81;100.00;99009.03;4982648;28;20449;-50
2021/01/28 09:11:29;;;;;;;0.20;0.10;;;;;;;4.82;100.00;99008.13;4982555;28;20448;-50
2021/01/28 09:14:15;;;;;;;0.20;0.10;;;;;;;4.96;100.00;98992.84;4982648;28;20466;-50
2021/01/28 09:16:54;;;;;;;0.20;0.10;;;;;;;4.81;100.00;98990.63;4957149;28;20946;-50
2021/01/28 09:19:22;;;;;;;0.20;0.10;;;;;;;4.72;100.00;98989.06;4982287;28;20441;-50
2021/01/28 09:21:54;;;;;;;0.30;0.20;;;;;;;5.07;100.00;98972.31;4984823;28;21003;-50
2021/01/28 09:24:21;;;;;;;0.20;0.10;;;;;;;5.08;100.00;98965.31;4988922;28;20497;-50
2021/01/28 09:27:05;;;;;;;0.20;0.10;;;;;;;4.78;100.00;98951.19;4979112;28;20832;-50
2021/01/28 09:29:36;;;;;;;0.20;0.10;;;;;;;4.85;100.00;98958.03;4987665;28;21010;-50
2021/01/28 09:32:09;;;;;;;0.67;0.67;;;;;;;4.91;100.00;98953.44;4988646;28;20449;-50
2021/01/28 09:34:35;;;;;;;0.20;0.10;;;;;;;4.79;100.00;98947.66;4968027;28;20548;-50
2021/01/28 09:37:15;;;;;;;0.20;0.10;;;;;;;4.68;100.00;98953.22;4981902;28;21342;-50
2021/01/28 09:39:49;;;;;;;0.20;0.10;;;;;;;4.66;100.00;98948.00;4984265;28;20442;-50
2021/01/28 09:42:33;;;;;;;0.20;0.20;;;;;;;4.59;100.00;98943.78;4988555;28;20940;-50
2021/01/28 09:45:05;;;;;;;0.20;0.10;;;;;;;4.61;100.00;98938.47;4988287;28;21037;-49
2021/01/28 09:47:32;;;;;;;0.20;0.10;;;;;;;4.71;100.00;98939.97;4984322;28;20508;-50
2021/01/28 09:50:05;;;;;;;0.20;0.10;;;;;;;4.73;100.00;98927.63;4981869;28;20550;-50
2021/01/28 09:52:37;;;;;;;0.20;0.10;;;;;;;4.56;100.00;98920.19;4985169;28;20517;-50
2021/01/28 09:55:12;;;;;;;0.20;0.10;;;;;;;4.56;100.00;98916.69;4987805;28;20459;-49
2021/01/28 09:57:39;;;;;;;0.20;0.10;;;;;;;4.69;100.00;98918.09;4974539;28;20466;-50
2021/01/28 10:00:07;;;;;;;0.20;0.10;;;;;;;4.91;100.00;98923.63;4988400;28;20450;-50
2021/01/28 10:02:36;;;;;;;0.20;0.10;;;;;;;4.89;100.00;98915.78;4987990;28;20462;-51
2021/01/28 10:05:05;;;;;;;0.20;0.20;;;;;;;4.88;100.00;98915.81;4981374;28;20990;-50
2021/01/28 10:07:31;;;;;;;0.20;0.10;;;;;;;4.90;100.00;98906.09;4994407;28;20461;-50
2021/01/28 10:09:57;;;;;;;0.20;0.10;;;;;;;4.91;100.00;98900.78;4981659;28;20876;-50
2021/01/28 10:12:26;;;;;;;0.20;0.20;;;;;;;4.81;100.00;98886.19;4981292;28;20888;-50
2021/01/28 10:14:53;;;;;;;0.20;0.10;;;;;;;4.63;100.00;98861.22;4987425;28;20983;-50
2021/01/28 10:17:20;;;;;;;0.20;0.10;;;;;;;4.67;100.00;98843.59;4988006;28;20938;-50
2021/01/28 10:19:47;;;;;;;0.20;0.10;;;;;;;4.75;100.00;98845.09;4965232;28;21014;-50
2021/01/28 10:22:18;;;;;;;0.20;0.10;;;;;;;4.69;100.00;98839.16;4981301;28;20457;-50
2021/01/28 10:24:45;;;;;;;0.20;0.20;;;;;;;4.68;100.00;98829.53;4986276;28;20501;-49
2021/01/28 10:27:11;;;;;;;0.20;0.10;;;;;;;4.73;100.00;98827.63;4976068;28;20509;-50
2021/01/28 10:29:40;;;;;;;0.20;0.10;;;;;;;4.72;100.00;98826.75;4986600;28;20458;-49
2021/01/28 10:32:08;;;;;;;0.20;0.10;;;;;;;4.76;100.00;98832.78;4987818;28;20457;-50
2021/01/28 10:34:35;;;;;;;0.20;0.20;;;;;;;4.89;100.00;98842.06;4983128;28;20556;-50
2021/01/28 10:37:03;;;;;;;0.20;0.20;;;;;;;5.06;100.00;98837.16;4980839;28;20454;-50
2021/01/28 10:39:29;;;;;;;0.20;0.10;;;;;;;5.02;100.00;98827.63;4985117;28;20458;-50
2021/01/28 10:41:55;;;;;;;0.20;0.10;;;;;;;4.92;100.00;98826.16;4987665;28;20502;-50
2021/01/28 10:44:23;;;;;;;0.20;0.10;;;;;;;4.95;100.00;98826.09;4983197;28;20497;-50
2021/01/28 10:46:50;;;;;;;0.20;0.10;;;;;;;5.20;100.00;98827.97;4981035;28;20833;-50
2021/01/28 10:49:17;;;;;;;0.20;0.10;;;;;;;5.05;100.00;98819.63;4983852;28;20461;-50
2021/01/28 10:51:44;;;;;;;0.20;0.20;;;;;;;5.05;100.00;98819.63;4987183;28;20955;-50
2021/01/28 10:54:10;;;;;;;0.20;0.10;;;;;;;4.95;100.00;98804.19;4984416;28;20548;-50
2021/01/28 10:56:37;;;;;;;0.20;0.20;;;;;;;5.10;100.00;98806.34;4978304;28;20445;-50
2021/01/28 10:59:03;;;;;;;0.20;0.10;;;;;;;5.15;100.00;98804.41;4984632;28;20461;-50
2021/01/28 11:01:30;;;;;;;0.20;0.10;;;;;;;5.11;100.00;98797.53;4980442;28;20465;-50
2021/01/28 11:03:56;;;;;;;0.20;0.10;;;;;;;5.13;100.00;98795.72;4982654;28;20501;-50
2021/01/28 11:06:23;;;;;;;0.20;0.10;;;;;;;5.15;100.00;98790.41;4986796;28;20454;-50
2021/01/28 11:08:49;;;;;;;0.20;0.10;;;;;;;5.13;100.00;98785.19;4984990;28;20465;-51
2021/01/28 11:11:16;;;;;;;0.30;0.30;;;;;;;5.05;100.00;98782.75;4980287;28;20504;-51
2021/01/28 11:13:43;;;;;;;0.20;0.20;;;;;;;5.16;100.00;98774.53;4982591;28;20521;-51
2021/01/28 11:16:11;;;;;;;0.20;0.17;;;;;;;5.11;100.00;98762.44;4987233;28;20454;-51
2021/01/28 11:18:38;;;;;;;0.20;0.20;;;;;;;5.06;100.00;98763.41;4985077;28;20461;-51
2021/01/28 11:21:05;;;;;;;0.20;0.10;;;;;;;5.15;100.00;98764.06;4980224;28;20997;-51
2021/01/28 11:23:31;;;;;;;0.20;0.10;;;;;;;5.22;100.00;98744.53;4982086;28;20494;-51
2021/01/28 11:25:57;;;;;;;0.20;0.10;;;;;;;5.25;100.00;98742.66;4986703;28;20450;-51
2021/01/28 11:28:23;;;;;;;0.20;0.10;;;;;;;5.47;100.00;98744.56;4984584;28;20951;-51
2021/01/28 11:30:49;;;;;;;0.20;0.10;;;;;;;5.40;100.00;98749.19;4979944;28;20456;-51
2021/01/28 11:33:15;;;;;;;0.20;0.10;;;;;;;5.58;100.00;98734.53;4982015;28;20457;-52
2021/01/28 11:35:41;;;;;;;0.20;0.20;;;;;;;5.48;100.00;98741.03;4986047;28;21010;-52
2021/01/28 11:38:08;;;;;;;0.20;0.10;;;;;;;5.51;100.00;98733.91;4984451;28;20577;-51
2021/01/28 11:40:36;;;;;;;0.20;0.20;;;;;;;5.55;100.00;98732.88;4979886;28;20939;-51
2021/01/28 11:43:04;;;;;;;0.27;0.17;;;;;;;5.64;100.00;98721.19;4981422;28;20517;-51
2021/01/28 11:45:33;;;;;;;0.30;0.20;;;;;;;5.51;100.00;98720.72;4968942;28;20505;-51
2021/01/28 11:48:00;;;;;;;0.20;0.10;;;;;;;5.50;100.00;98711.09;4985649;28;20959;-51
2021/01/28 11:50:27;;;;;;;0.20;0.10;;;;;;;5.52;100.00;98716.31;4979885;28;20453;-51
2021/01/28 11:52:54;;;;;;;0.20;0.10;;;;;;;5.71;100.00;98711.28;4981010;28;20454;-53